Time;durP1;ratioP1;P1;durP2;ratioP2;P2;SDS_P1;SDS_P2;PMS_P1;PMS_P2;Temp;Humidity;BMP_temperature;BMP_pressure;BME280_temperature;BME280_humidity;BME280_pressure;Samples;Min_cycle;Max_cycle;Signal;HPM_P1;HPM_P2
2023/07/01 08:56:55;;;;;;;1.30;1.20;;;;;;;16.79;100.00;100205.97;5065781;28;20395;-70
2023/07/01 08:59:21;;;;;;;1.40;1.20;;;;;;;16.86;100.00;100207.56;5064085;28;20037;-69
2023/07/01 09:01:47;;;;;;;1.20;1.13;;;;;;;16.90;100.00;100204.03;5039017;28;20026;-70
2023/07/01 09:04:13;;;;;;;1.20;1.10;;;;;;;16.95;100.00;100205.91;5040914;28;20033;-71
2023/07/01 09:06:38;;;;;;;1.92;0.90;;;;;;;16.97;100.00;100215.47;5048220;28;20064;-72
2023/07/01 09:09:04;;;;;;;0.98;0.98;;;;;;;16.99;100.00;100206.97;5049518;28;20076;-72
2023/07/01 09:11:29;;;;;;;1.45;1.00;;;;;;;17.02;100.00;100208.34;5049483;28;20112;-71
2023/07/01 09:13:56;;;;;;;0.93;0.93;;;;;;;17.03;100.00;100210.78;5048976;28;20083;-72
2023/07/01 09:16:31;;;;;;;1.30;1.20;;;;;;;17.08;100.00;100210.75;5033715;28;20024;-71
2023/07/01 09:19:04;;;;;;;1.20;0.82;;;;;;;17.06;100.00;100214.84;5049263;28;20484;-72
2023/07/01 09:21:32;;;;;;;0.68;0.68;;;;;;;17.05;100.00;100208.56;5047682;28;20147;-71
2023/07/01 09:23:58;;;;;;;1.15;1.02;;;;;;;17.09;100.00;100195.97;5049527;28;20045;-71
2023/07/01 09:26:23;;;;;;;0.80;0.80;;;;;;;17.15;100.00;100197.56;5049573;28;20031;-71
2023/07/01 09:28:53;;;;;;;0.82;0.82;;;;;;;17.24;100.00;100202.41;5049382;28;20033;-72
2023/07/01 09:31:19;;;;;;;2.50;1.00;;;;;;;17.22;100.00;100199.16;5047067;28;20469;-72
2023/07/01 09:34:07;;;;;;;0.90;0.90;;;;;;;17.30;100.00;100193.06;5048276;28;20064;-72
2023/07/01 09:36:33;;;;;;;1.45;1.15;;;;;;;17.35;100.00;100198.50;5049025;28;20548;-72
2023/07/01 09:39:00;;;;;;;0.90;0.90;;;;;;;17.33;100.00;100192.50;5047885;28;20025;-71
2023/07/01 09:41:26;;;;;;;0.88;0.77;;;;;;;17.34;100.00;100196.88;5040423;28;20377;-72
2023/07/01 09:43:56;;;;;;;1.67;1.15;;;;;;;17.35;100.00;100193.84;5046731;28;20026;-72
2023/07/01 09:46:22;;;;;;;2.15;1.20;;;;;;;17.39;100.00;100190.53;5043208;28;20036;-71
2023/07/01 09:48:56;;;;;;;1.13;0.90;;;;;;;17.39;100.00;100194.09;5039440;28;20071;-71
2023/07/01 09:51:26;;;;;;;1.27;1.13;;;;;;;17.38;100.00;100187.00;5035082;28;20100;-71
2023/07/01 09:53:51;;;;;;;1.80;1.02;;;;;;;17.38;100.00;100187.00;5047688;28;20530;-72
2023/07/01 09:56:18;;;;;;;1.13;1.13;;;;;;;17.40;100.00;100194.91;5047267;28;20038;-71
2023/07/01 09:58:45;;;;;;;1.23;1.13;;;;;;;17.41;100.00;100188.31;5048509;28;20052;-71
2023/07/01 10:01:12;;;;;;;1.40;1.30;;;;;;;17.41;100.00;100188.31;5044941;28;20058;-71
2023/07/01 10:03:38;;;;;;;1.77;1.30;;;;;;;17.40;100.00;100186.72;5047161;28;20042;-71
2023/07/01 10:06:03;;;;;;;1.20;1.10;;;;;;;17.42;100.00;100187.22;5046621;28;20033;-71
2023/07/01 10:08:29;;;;;;;1.27;1.17;;;;;;;17.44;100.00;100195.97;5033335;28;20037;-71
2023/07/01 10:11:21;;;;;;;1.42;1.15;;;;;;;17.46;100.00;100180.91;5021503;28;20106;-71
2023/07/01 10:13:48;;;;;;;;;;;;;;;17.58;100.00;100190.66;5015079;28;20080;-71
2023/07/01 10:16:14;;;;;;;1.40;1.30;;;;;;;17.48;100.00;100186.91;5014892;28;19917;-71
2023/07/01 10:18:40;;;;;;;1.75;1.40;;;;;;;17.53;100.00;100181.38;5014213;28;20033;-70
2023/07/01 10:21:23;;;;;;;2.08;1.40;;;;;;;17.56;100.00;100188.22;5014995;28;20038;-71
2023/07/01 10:23:52;;;;;;;1.42;1.33;;;;;;;17.53;100.00;100170.44;5013221;28;20571;-74
2023/07/01 10:26:36;;;;;;;1.70;1.60;;;;;;;17.58;100.00;100174.25;5031756;28;20038;-70
2023/07/01 10:29:30;;;;;;;1.35;1.35;;;;;;;17.59;100.00;100170.38;5034308;28;20047;-70
2023/07/01 10:32:13;;;;;;;1.70;1.60;;;;;;;17.57;100.00;100173.41;5034215;28;20375;-70
2023/07/01 10:34:53;;;;;;;1.90;1.80;;;;;;;17.59;100.00;100171.22;5033878;28;20022;-70
2023/07/01 10:37:24;;;;;;;2.88;2.33;;;;;;;17.64;100.00;100173.09;5034374;28;20465;-70
2023/07/01 10:39:50;;;;;;;3.15;2.00;;;;;;;17.71;100.00;100168.09;5026640;28;20038;-70
2023/07/01 10:42:31;;;;;;;2.78;2.10;;;;;;;17.81;100.00;100172.63;5023413;28;20618;-70
2023/07/01 10:45:11;;;;;;;2.30;2.20;;;;;;;17.92;100.00;100178.84;5014665;28;20449;-70
2023/07/01 10:48:02;;;;;;;2.83;2.30;;;;;;;17.97;100.00;100165.13;5014460;28;20030;-70
2023/07/01 10:50:28;;;;;;;2.45;2.35;;;;;;;18.01;100.00;100161.50;5019852;28;20069;-70
2023/07/01 10:52:59;;;;;;;2.60;2.40;;;;;;;18.08;100.00;100163.88;5014325;28;20078;-70
2023/07/01 10:55:46;;;;;;;2.95;2.75;;;;;;;18.16;100.00;100163.25;5014542;28;20052;-70
2023/07/01 10:58:26;;;;;;;2.80;2.45;;;;;;;18.19;100.00;100161.81;5014939;28;20033;-70
2023/07/01 11:00:55;;;;;;;3.20;2.95;;;;;;;18.26;100.00;100172.44;5012075;28;20037;-70
2023/07/01 11:03:35;;;;;;;4.03;2.78;;;;;;;18.36;100.00;100167.63;5014590;28;20458;-70
2023/07/01 11:06:08;;;;;;;2.70;2.50;;;;;;;18.52;100.00;100170.16;5013274;28;20033;-70
2023/07/01 11:08:43;;;;;;;2.78;2.58;;;;;;;18.55;100.00;100164.91;5013166;28;20375;-70
2023/07/01 11:11:09;;;;;;;3.08;2.78;;;;;;;18.64;100.00;100159.56;5014253;28;20033;-70
2023/07/01 11:13:37;;;;;;;2.92;2.63;;;;;;;18.76;100.00;100164.63;5030026;28;20108;-70
2023/07/01 11:16:11;;;;;;;2.70;2.50;;;;;;;18.86;100.00;100163.69;5034032;28;20377;-70
2023/07/01 11:18:44;;;;;;;4.18;2.78;;;;;;;18.95;100.00;100156.41;5032900;28;20025;-69
2023/07/01 11:21:11;;;;;;;4.68;2.90;;;;;;;18.99;100.00;100153.88;5032733;28;20029;-69
2023/07/01 11:23:42;;;;;;;3.03;2.83;;;;;;;19.01;100.00;100157.13;5033454;28;20033;-70
2023/07/01 11:26:08;;;;;;;3.05;2.85;;;;;;;18.98;100.00;100161.31;5034137;28;20103;-70
2023/07/01 11:28:33;;;;;;;3.10;2.90;;;;;;;19.02;100.00;100154.13;5030561;28;20030;-70
2023/07/01 11:31:15;;;;;;;3.15;2.70;;;;;;;19.12;100.00;100151.19;5033741;28;20104;-71
2023/07/01 11:33:48;;;;;;;3.22;2.92;;;;;;;19.16;100.00;100154.16;5033560;28;20025;-69
2023/07/01 11:36:16;;;;;;;3.78;2.72;;;;;;;19.17;100.00;100147.53;5033681;28;20025;-70
2023/07/01 11:38:47;;;;;;;3.10;2.50;;;;;;;19.25;100.00;100154.31;5033124;28;20060;-70
2023/07/01 11:41:18;;;;;;;2.40;2.20;;;;;;;19.30;100.00;100156.94;5020585;28;20065;-75
2023/07/01 11:43:43;;;;;;;2.40;2.30;;;;;;;19.24;100.00;100156.22;5033260;28;20037;-76
2023/07/01 11:46:12;;;;;;;1.95;1.77;;;;;;;19.26;100.00;100154.00;5032453;28;20042;-73
2023/07/01 11:48:37;;;;;;;2.03;1.92;;;;;;;19.30;100.00;100145.97;5026368;28;20433;-73
2023/07/01 11:51:03;;;;;;;2.45;2.20;;;;;;;19.33;100.00;100153.59;5042119;28;20029;-72
2023/07/01 11:53:28;;;;;;;2.55;2.33;;;;;;;19.29;100.00;100149.81;5035866;28;20033;-71
2023/07/01 11:55:58;;;;;;;3.33;2.47;;;;;;;19.30;100.00;100159.69;5038017;28;20514;-72
2023/07/01 11:58:37;;;;;;;2.97;2.67;;;;;;;19.35;100.00;100159.59;5032921;28;20648;-71
2023/07/01 12:01:02;;;;;;;2.95;2.75;;;;;;;19.39;100.00;100159.81;5031400;28;20033;-73
2023/07/01 12:03:35;;;;;;;3.13;2.88;;;;;;;19.46;100.00;100165.69;5017506;28;20034;-77
2023/07/01 12:06:04;;;;;;;3.97;3.03;;;;;;;19.48;100.00;100169.78;5029299;28;20109;-72
2023/07/01 12:09:08;;;;;;;2.60;2.25;;;;;;;19.53;100.00;100160.66;5011830;28;20022;-71
2023/07/01 12:11:44;;;;;;;3.45;2.70;;;;;;;19.59;100.00;100161.38;5011729;28;20481;-70
2023/07/01 12:14:19;;;;;;;2.92;2.72;;;;;;;19.53;100.00;100154.34;5031516;28;20026;-71
2023/07/01 12:16:47;;;;;;;4.10;3.53;;;;;;;19.47;100.00;100143.47;5032455;28;20033;-70
2023/07/01 12:19:14;;;;;;;4.78;3.83;;;;;;;19.40;100.00;100161.41;5032691;28;20044;-70
2023/07/01 12:21:40;;;;;;;7.70;3.90;;;;;;;19.38;100.00;100158.19;5031437;28;20017;-70
2023/07/01 12:24:16;;;;;;;5.22;4.00;;;;;;;19.43;100.00;100163.56;5032910;28;20041;-70
2023/07/01 12:26:41;;;;;;;4.45;4.05;;;;;;;19.40;100.00;100166.91;5032685;28;20029;-69
2023/07/01 12:29:06;;;;;;;5.05;4.60;;;;;;;19.37;100.00;100159.28;5022857;28;20044;-71
2023/07/01 12:31:32;;;;;;;6.03;5.47;;;;;;;19.27;100.00;100183.03;5012448;28;20053;-71
2023/07/01 12:33:57;;;;;;;5.15;4.70;;;;;;;19.17;100.00;100179.66;5012663;28;20029;-70
2023/07/01 12:36:22;;;;;;;4.63;4.22;;;;;;;19.01;100.00;100190.03;5012561;28;20033;-70
2023/07/01 12:38:50;;;;;;;4.82;4.43;;;;;;;18.90;100.00;100187.47;5028548;28;20385;-69
2023/07/01 12:41:16;;;;;;;4.63;4.22;;;;;;;18.92;100.00;100192.66;5031255;28;20040;-70
2023/07/01 12:43:41;;;;;;;4.90;4.40;;;;;;;18.90;100.00;100189.38;5032340;28;20025;-70
2023/07/01 12:46:08;;;;;;;3.53;3.22;;;;;;;18.76;100.00;100200.25;5032367;28;20044;-70
2023/07/01 12:48:33;;;;;;;3.72;3.30;;;;;;;18.69;100.00;100191.56;5031297;28;20082;-70
2023/07/01 12:50:59;;;;;;;6.03;3.25;;;;;;;18.63;100.00;100185.38;5031977;28;20069;-70
2023/07/01 12:53:24;;;;;;;6.75;3.88;;;;;;;18.68;100.00;100200.91;5027885;28;20040;-70
2023/07/01 12:55:49;;;;;;;5.70;4.30;;;;;;;18.53;100.00;100193.72;5013036;28;20080;-70
2023/07/01 12:58:15;;;;;;;6.97;5.20;;;;;;;18.53;100.00;100199.19;5012783;28;20061;-70
2023/07/01 13:00:41;;;;;;;5.97;4.60;;;;;;;18.58;100.00;100202.69;5010316;28;20022;-76
2023/07/01 13:03:07;;;;;;;5.78;3.92;;;;;;;18.55;100.00;100208.72;5012738;28;20425;-70
2023/07/01 13:05:34;;;;;;;4.28;3.80;;;;;;;18.49;100.00;100217.31;5012555;28;20034;-70
2023/07/01 13:08:00;;;;;;;4.82;2.80;;;;;;;18.36;100.00;100233.38;5010898;28;20033;-71
2023/07/01 13:10:25;;;;;;;3.65;2.92;;;;;;;18.13;100.00;100235.00;5029260;28;20031;-72
2023/07/01 13:12:56;;;;;;;3.83;2.90;;;;;;;18.06;100.00;100231.81;5031585;28;20032;-69
2023/07/01 13:15:35;;;;;;;3.45;2.80;;;;;;;17.96;100.00;100234.63;5030097;28;20033;-69
2023/07/01 13:18:04;;;;;;;5.38;2.95;;;;;;;17.84;100.00;100233.06;5030391;28;20087;-69
2023/07/01 13:20:30;;;;;;;3.42;3.13;;;;;;;17.88;100.00;100227.84;5025585;28;20059;-69
2023/07/01 13:22:56;;;;;;;3.17;2.72;;;;;;;17.93;100.00;100229.75;5040683;28;20025;-69
2023/07/01 13:25:24;;;;;;;5.00;3.25;;;;;;;17.95;100.00;100219.31;5051783;28;20035;-70
2023/07/01 13:27:50;;;;;;;6.90;3.40;;;;;;;18.00;100.00;100222.00;5033444;28;20045;-70
2023/07/01 13:30:29;;;;;;;4.55;3.47;;;;;;;18.11;100.00;100225.44;5033259;28;20072;-68
2023/07/01 13:32:54;;;;;;;6.07;3.80;;;;;;;18.24;100.00;100220.09;5023887;28;20033;-70
2023/07/01 13:35:21;;;;;;;3.95;3.55;;;;;;;18.27;100.00;100223.34;5030545;28;20491;-70
2023/07/01 13:37:46;;;;;;;5.75;4.03;;;;;;;18.29;100.00;100221.13;5030605;28;20029;-70
2023/07/01 13:40:14;;;;;;;4.90;3.90;;;;;;;18.31;100.00;100227.13;5032087;28;20033;-71
2023/07/01 13:42:39;;;;;;;5.10;3.67;;;;;;;18.34;100.00;100229.28;5034081;28;20104;-71
2023/07/01 13:45:15;;;;;;;4.13;3.50;;;;;;;18.37;100.00;100224.06;5035407;28;20112;-70
2023/07/01 13:47:47;;;;;;;5.65;3.88;;;;;;;18.32;100.00;100232.31;5035905;28;20113;-71
2023/07/01 13:50:24;;;;;;;5.63;4.03;;;;;;;18.29;100.00;100232.91;5030743;28;20034;-70
2023/07/01 13:52:52;;;;;;;6.07;4.05;;;;;;;18.30;100.00;100242.75;5035502;28;20025;-70
2023/07/01 13:55:19;;;;;;;5.50;3.80;;;;;;;18.29;100.00;100234.84;5035383;28;20092;-68
2023/07/01 13:57:49;;;;;;;5.75;4.05;;;;;;;18.27;100.00;100240.59;5035392;28;20123;-71
2023/07/01 14:00:37;;;;;;;6.25;4.15;;;;;;;18.31;100.00;100243.56;5035574;28;20034;-69
2023/07/01 14:03:05;;;;;;;9.80;4.72;;;;;;;18.33;100.00;100244.91;5034994;28;20603;-70
2023/07/01 14:05:34;;;;;;;5.75;4.40;;;;;;;18.33;100.00;100246.84;5033492;28;20033;-70
2023/07/01 14:08:00;;;;;;;6.35;4.65;;;;;;;18.30;100.00;100250.13;5035467;28;20036;-71
2023/07/01 14:10:32;;;;;;;6.95;4.68;;;;;;;18.30;100.00;100250.13;5021461;28;20029;-69
2023/07/01 14:12:59;;;;;;;8.45;4.70;;;;;;;18.36;100.00;100251.75;5015554;28;20096;-71
2023/07/01 14:15:48;;;;;;;7.43;4.60;;;;;;;18.41;100.00;100255.22;5032224;28;20040;-70
2023/07/01 14:18:24;;;;;;;11.40;5.13;;;;;;;18.37;100.00;100269.78;5055156;28;20027;-69
2023/07/01 14:20:52;;;;;;;7.72;5.05;;;;;;;18.33;100.00;100266.81;5054900;28;20452;-68
2023/07/01 14:23:27;;;;;;;8.38;5.10;;;;;;;18.34;100.00;100264.88;5041704;28;20503;-69
2023/07/01 14:25:53;;;;;;;10.32;5.22;;;;;;;18.30;100.00;100266.56;5034489;28;20431;-70
2023/07/01 14:28:22;;;;;;;6.38;4.53;;;;;;;18.27;100.00;100267.16;5032956;28;20053;-70
2023/07/01 14:30:51;;;;;;;8.20;5.47;;;;;;;18.23;100.00;100262.25;5031321;28;20113;-73
2023/07/01 14:33:18;;;;;;;7.35;4.22;;;;;;;18.25;100.00;100259.22;5031273;28;20030;-73
2023/07/01 14:35:46;;;;;;;9.55;5.18;;;;;;;18.24;100.00;100263.91;5034135;28;20072;-73
2023/07/01 14:38:13;;;;;;;8.07;4.78;;;;;;;18.38;100.00;100269.50;5034855;28;20052;-71
2023/07/01 14:40:38;;;;;;;8.82;4.63;;;;;;;18.52;100.00;100272.34;5022246;28;20033;-71
2023/07/01 14:43:09;;;;;;;12.20;4.50;;;;;;;18.65;100.00;100261.81;5036750;28;20188;-74
2023/07/01 14:45:37;;;;;;;7.53;3.88;;;;;;;18.67;100.00;100271.34;5054992;28;20393;-74
2023/07/01 14:48:02;;;;;;;5.22;4.10;;;;;;;18.83;100.00;100268.41;5036032;28;20121;-71
2023/07/01 14:50:27;;;;;;;7.10;4.13;;;;;;;18.91;100.00;100265.03;5034744;28;20100;-71
2023/07/01 14:52:53;;;;;;;6.72;3.90;;;;;;;19.15;100.00;100269.66;5034569;28;20025;-70
2023/07/01 14:55:18;;;;;;;6.20;3.63;;;;;;;19.29;100.00;100265.88;5029962;28;20077;-73
2023/07/01 14:57:44;;;;;;;5.72;3.40;;;;;;;19.40;100.00;100263.78;5014691;28;20390;-73
2023/07/01 15:00:10;;;;;;;4.57;3.10;;;;;;;19.39;100.00;100267.63;5014100;28;20038;-72
2023/07/01 15:02:35;;;;;;;8.70;3.33;;;;;;;19.39;100.00;100264.06;5012305;28;20096;-74
2023/07/01 15:05:01;;;;;;;7.95;3.25;;;;;;;19.48;100.00;100279.53;5012843;28;20026;-73
2023/07/01 15:07:26;;;;;;;6.47;3.60;;;;;;;19.59;100.00;100279.38;5014786;28;20034;-73
2023/07/01 15:09:51;;;;;;;4.75;2.80;;;;;;;19.58;100.00;100281.31;5013186;28;20087;-70
2023/07/01 15:12:17;;;;;;;4.55;2.50;;;;;;;19.56;100.00;100277.25;5033377;28;20053;-75
2023/07/01 15:14:42;;;;;;;3.65;2.42;;;;;;;19.53;100.00;100280.59;5034156;28;20029;-71
2023/07/01 15:17:08;;;;;;;3.38;1.60;;;;;;;19.43;100.00;100281.53;5034014;28;20029;-73
2023/07/01 15:19:34;;;;;;;2.42;1.42;;;;;;;19.38;100.00;100292.59;5034187;28;20450;-70
2023/07/01 15:22:00;;;;;;;3.42;1.35;;;;;;;19.34;100.00;100286.06;5032532;28;20036;-71
2023/07/01 15:24:25;;;;;;;3.10;1.55;;;;;;;19.31;100.00;100290.25;5025877;28;20050;-73
2023/07/01 15:26:51;;;;;;;2.60;1.25;;;;;;;19.28;100.00;100288.09;5017623;28;20112;-71
2023/07/01 15:29:16;;;;;;;4.00;1.25;;;;;;;19.22;100.00;100287.34;5017840;28;20156;-72
2023/07/01 15:31:41;;;;;;;3.90;1.20;;;;;;;19.17;100.00;100290.16;5034068;28;20032;-73
2023/07/01 15:34:07;;;;;;;2.60;1.13;;;;;;;19.12;100.00;100293.00;5032290;28;20061;-71
2023/07/01 15:36:32;;;;;;;2.72;1.48;;;;;;;19.12;100.00;100298.47;5021089;28;20157;-72
2023/07/01 15:38:57;;;;;;;2.88;1.45;;;;;;;19.06;100.00;100299.66;5027229;28;20041;-72
2023/07/01 15:41:23;;;;;;;2.30;1.40;;;;;;;18.98;100.00;100303.03;5031790;28;20508;-72
2023/07/01 15:43:48;;;;;;;2.38;1.58;;;;;;;18.94;100.00;100303.63;5035336;28;20029;-73
2023/07/01 15:46:13;;;;;;;3.75;1.55;;;;;;;18.98;100.00;100300.31;5053304;28;20028;-72
2023/07/01 15:48:39;;;;;;;1.90;1.40;;;;;;;18.95;100.00;100304.47;5043728;28;20142;-73
2023/07/01 15:51:04;;;;;;;3.60;1.00;;;;;;;18.93;100.00;100312.16;5038276;28;20038;-71
2023/07/01 15:53:30;;;;;;;4.85;1.30;;;;;;;18.91;100.00;100320.66;5025745;28;20108;-73
2023/07/01 15:55:55;;;;;;;1.20;1.10;;;;;;;18.88;100.00;100318.53;5031410;28;20046;-74
2023/07/01 15:58:20;;;;;;;3.90;1.42;;;;;;;18.91;100.00;100317.13;5027712;28;20030;-74
2023/07/01 16:00:46;;;;;;;3.33;1.38;;;;;;;18.92;100.00;100321.50;5045350;28;20692;-73
2023/07/01 16:03:11;;;;;;;6.07;1.42;;;;;;;18.89;100.00;100322.91;5041965;28;20373;-74
2023/07/01 16:05:37;;;;;;;1.85;1.38;;;;;;;18.92;100.00;100322.31;5032423;28;20029;-74
